createdAt,value
2017-08-17T00:01:42.996Z,32.45
2017-08-17T00:04:10.515Z,30.23
2017-08-17T00:06:38.020Z,31.40
2017-08-17T00:09:05.534Z,30.95
2017-08-17T00:11:33.065Z,30.15
2017-08-17T00:14:00.567Z,30.92
2017-08-17T00:16:28.062Z,29.10
2017-08-17T00:18:55.572Z,32.28
2017-08-17T00:21:23.058Z,33.17
2017-08-17T00:23:50.814Z,28.42
2017-08-17T00:26:18.330Z,30.85
2017-08-17T00:28:45.845Z,30.45
2017-08-17T00:31:13.586Z,31.45
2017-08-17T00:33:41.113Z,31.12
2017-08-17T00:36:08.644Z,30.65
2017-08-17T00:38:36.271Z,30.95
2017-08-17T00:41:04.623Z,30.92
2017-08-17T00:43:32.136Z,33.17
2017-08-17T00:45:59.668Z,32.80
2017-08-17T00:48:28.011Z,33.83
2017-08-17T00:50:55.512Z,31.15
2017-08-17T00:53:23.012Z,31.42
2017-08-17T00:55:50.507Z,30.98
2017-08-17T00:58:18.176Z,31.40
2017-08-17T01:00:46.444Z,31.75
2017-08-17T01:03:14.017Z,32.55
2017-08-17T01:05:41.521Z,30.10
2017-08-17T01:08:09.014Z,30.40
2017-08-17T01:10:36.563Z,33.30
2017-08-17T01:13:04.081Z,29.87
2017-08-17T01:15:31.588Z,32.78
2017-08-17T01:17:59.126Z,31.67
2017-08-17T01:20:26.649Z,31.08
2017-08-17T01:22:54.145Z,29.65
2017-08-17T01:25:21.681Z,31.95
2017-08-17T01:27:49.157Z,32.72
2017-08-17T01:30:16.684Z,32.22
2017-08-17T01:32:44.203Z,34.95
2017-08-17T01:35:11.726Z,33.92
2017-08-17T01:37:39.345Z,34.67
2017-08-17T01:40:07.600Z,34.47
2017-08-17T01:42:35.117Z,35.08
2017-08-17T01:45:02.618Z,33.22
2017-08-17T01:47:30.114Z,32.92
2017-08-17T01:49:57.642Z,34.05
2017-08-17T01:52:25.159Z,34.83
2017-08-17T01:54:52.661Z,32.08
2017-08-17T01:57:20.183Z,32.33
2017-08-17T01:59:47.675Z,34.20
2017-08-17T02:02:15.196Z,33.30
2017-08-17T02:04:42.724Z,32.45
2017-08-17T02:07:10.219Z,32.40
2017-08-17T02:09:37.813Z,35.38
2017-08-17T02:12:05.334Z,34.97
2017-08-17T02:14:32.848Z,35.53
2017-08-17T02:17:01.118Z,32.58
2017-08-17T02:19:28.626Z,32.85
2017-08-17T02:21:56.136Z,32.10
2017-08-17T02:24:23.667Z,32.38
2017-08-17T02:26:51.185Z,29.87
2017-08-17T02:29:18.693Z,33.15
2017-08-17T02:31:46.182Z,30.10
2017-08-17T02:34:13.833Z,31.77
2017-08-17T02:36:41.331Z,32.47
2017-08-17T02:39:08.847Z,31.20
2017-08-17T02:41:36.336Z,35.67
2017-08-17T02:44:03.848Z,30.55
2017-08-17T02:46:31.351Z,30.42
2017-08-17T02:48:58.852Z,29.45
2017-08-17T02:51:26.361Z,30.80
2017-08-17T02:53:54.657Z,33.00
2017-08-17T02:56:22.141Z,31.45
2017-08-17T02:58:49.650Z,30.88
2017-08-17T03:01:17.162Z,30.12
2017-08-17T03:03:44.654Z,28.75
2017-08-17T03:06:12.175Z,32.35
2017-08-17T03:08:39.700Z,30.60
2017-08-17T03:11:07.230Z,31.95
2017-08-17T03:13:34.754Z,31.55
2017-08-17T03:16:02.255Z,32.35
2017-08-17T03:18:29.767Z,31.62
2017-08-17T03:20:57.283Z,30.67
2017-08-17T03:23:25.557Z,30.37
2017-08-17T03:25:53.833Z,30.02
2017-08-17T03:28:21.337Z,28.45
2017-08-17T03:30:48.852Z,32.63
2017-08-17T03:33:16.378Z,33.08
2017-08-17T03:35:44.022Z,33.05
2017-08-17T03:38:11.507Z,30.88
2017-08-17T03:40:39.050Z,31.70
2017-08-17T03:43:06.534Z,30.10
2017-08-17T03:45:34.042Z,29.63
2017-08-17T03:48:01.579Z,30.00
2017-08-17T03:50:29.879Z,30.60
2017-08-17T03:52:57.423Z,29.65
2017-08-17T03:55:24.919Z,29.65
2017-08-17T03:57:52.417Z,32.15
2017-08-17T04:00:19.931Z,27.50
2017-08-17T04:02:47.428Z,28.45
2017-08-17T04:05:14.948Z,27.85
2017-08-17T04:07:42.462Z,33.67
2017-08-17T04:10:10.731Z,31.67
2017-08-17T04:12:38.287Z,33.17
2017-08-17T04:15:05.804Z,30.33
2017-08-17T04:17:33.838Z,29.40
2017-08-17T04:20:01.365Z,28.80
2017-08-17T04:22:28.869Z,29.35
2017-08-17T04:24:56.391Z,31.85
2017-08-17T04:27:23.915Z,31.90
2017-08-17T04:29:51.415Z,30.50
2017-08-17T04:32:18.933Z,29.27
2017-08-17T04:34:46.441Z,32.53
2017-08-17T04:37:13.990Z,32.97
2017-08-17T04:39:41.513Z,32.05
2017-08-17T04:42:09.049Z,29.45
2017-08-17T04:44:36.529Z,30.73
2017-08-17T04:47:04.042Z,28.30
2017-08-17T04:49:32.322Z,28.70
2017-08-17T04:52:00.580Z,31.85
2017-08-17T04:54:28.090Z,29.30
2017-08-17T04:57:18.007Z,28.73
2017-08-17T04:59:45.514Z,29.60
2017-08-17T05:02:13.018Z,27.25
2017-08-17T05:04:40.542Z,26.33
2017-08-17T05:07:08.051Z,26.10
2017-08-17T05:09:35.584Z,26.23
2017-08-17T05:12:03.121Z,25.88
2017-08-17T05:14:30.612Z,23.55
2017-08-17T05:16:58.118Z,21.62
2017-08-17T05:19:26.435Z,22.58
2017-08-17T05:21:53.953Z,22.35
2017-08-17T05:24:21.456Z,24.10
2017-08-17T05:26:48.972Z,23.35
2017-08-17T05:29:17.240Z,23.92
2017-08-17T05:31:45.494Z,21.30
2017-08-17T05:34:13.031Z,21.55
2017-08-17T05:36:40.604Z,22.98
2017-08-17T05:39:08.123Z,22.52
2017-08-17T05:41:35.646Z,25.50
2017-08-17T05:44:03.156Z,22.87
2017-08-17T05:46:30.654Z,22.60
2017-08-17T05:48:58.164Z,23.87
2017-08-17T05:51:25.732Z,22.27
2017-08-17T05:53:53.401Z,23.23
2017-08-17T05:56:20.962Z,25.10
2017-08-17T05:58:48.484Z,24.33
2017-08-17T06:01:15.990Z,24.25
2017-08-17T06:03:43.497Z,24.40
2017-08-17T06:06:11.877Z,22.95
2017-08-17T06:08:39.391Z,22.45
2017-08-17T06:11:06.974Z,23.92
2017-08-17T06:13:34.704Z,23.02
2017-08-17T06:16:02.218Z,24.85
2017-08-17T06:18:30.492Z,24.70
2017-08-17T06:20:58.009Z,33.80
2017-08-17T06:23:25.540Z,33.03
2017-08-17T06:25:53.111Z,31.10
2017-08-17T06:28:20.614Z,27.87
2017-08-17T06:30:48.121Z,27.67
2017-08-17T06:33:15.738Z,29.77
2017-08-17T06:35:43.224Z,33.83
2017-08-17T06:38:10.745Z,30.15
2017-08-17T06:40:38.269Z,32.20
2017-08-17T06:43:05.794Z,30.48
2017-08-17T06:45:33.318Z,28.45
2017-08-17T06:48:00.824Z,30.70
2017-08-17T06:50:29.095Z,27.85
2017-08-17T06:52:57.362Z,26.40
2017-08-17T06:55:25.831Z,27.98
2017-08-17T06:57:53.388Z,25.50
2017-08-17T07:00:20.896Z,23.48
2017-08-17T07:02:48.418Z,25.95
2017-08-17T07:05:15.925Z,25.15
2017-08-17T07:07:43.443Z,24.92
2017-08-17T07:10:10.953Z,24.90
2017-08-17T07:12:38.478Z,21.87
2017-08-17T07:15:06.753Z,21.92
2017-08-17T07:17:35.018Z,22.95
2017-08-17T07:20:03.300Z,18.25
2017-08-17T07:22:31.576Z,17.37
2017-08-17T07:25:00.102Z,18.98
2017-08-17T07:27:27.667Z,18.65
2017-08-17T07:29:55.158Z,15.63
2017-08-17T07:32:22.691Z,17.52
2017-08-17T07:34:50.220Z,16.15
2017-08-17T07:37:17.772Z,16.83
2017-08-17T07:39:45.279Z,16.83
2017-08-17T07:42:12.777Z,15.52
2017-08-17T07:44:40.269Z,14.68
2017-08-17T07:47:07.763Z,14.73
2017-08-17T07:49:35.266Z,15.45
2017-08-17T07:52:02.860Z,14.95
2017-08-17T07:54:30.356Z,16.87
2017-08-17T07:56:57.896Z,15.45
2017-08-17T07:59:25.431Z,13.60
2017-08-17T08:01:52.933Z,15.88
2017-08-17T08:04:20.459Z,13.77
2017-08-17T08:06:47.957Z,13.38
2017-08-17T08:09:15.442Z,12.02
2017-08-17T08:11:43.183Z,12.43
2017-08-17T08:14:10.723Z,12.75
2017-08-17T08:16:38.239Z,12.57
2017-08-17T08:19:05.761Z,13.10
2017-08-17T08:21:33.280Z,11.25
2017-08-17T08:24:00.800Z,10.32
2017-08-17T08:26:28.322Z,9.85
2017-08-17T08:28:55.804Z,13.80
2017-08-17T08:31:24.065Z,12.95
2017-08-17T08:33:51.594Z,11.60
2017-08-17T08:36:19.105Z,10.15
2017-08-17T08:38:46.611Z,11.85
2017-08-17T08:41:14.103Z,10.50
2017-08-17T08:43:41.609Z,10.65
2017-08-17T08:46:09.107Z,10.00
2017-08-17T08:48:36.674Z,9.40
2017-08-17T08:51:04.194Z,10.50
2017-08-17T08:53:31.751Z,10.57
2017-08-17T08:55:59.308Z,9.70
2017-08-17T08:58:26.801Z,10.30
2017-08-17T09:00:54.304Z,10.20
2017-08-17T09:03:21.805Z,10.75
2017-08-17T09:05:49.392Z,10.77
2017-08-17T09:08:16.927Z,10.73
2017-08-17T09:10:44.425Z,8.43
2017-08-17T09:13:12.678Z,9.38
2017-08-17T09:15:40.637Z,8.43
2017-08-17T09:18:08.166Z,8.98
2017-08-17T09:20:35.666Z,8.38
2017-08-17T09:23:03.230Z,6.87
2017-08-17T09:25:30.817Z,8.23
2017-08-17T09:27:59.713Z,8.60
2017-08-17T09:30:27.995Z,9.35
2017-08-17T09:32:56.243Z,9.75
2017-08-17T09:35:23.778Z,9.75
2017-08-17T09:37:51.291Z,7.57
2017-08-17T09:40:18.797Z,8.00
2017-08-17T09:42:46.299Z,8.57
2017-08-17T09:45:14.682Z,8.57
2017-08-17T09:47:50.407Z,8.90
2017-08-17T09:50:17.909Z,8.65
2017-08-17T09:52:45.433Z,7.68
2017-08-17T09:55:12.944Z,7.45
2017-08-17T09:57:40.523Z,8.43
2017-08-17T10:00:08.024Z,8.57
2017-08-17T10:02:35.564Z,7.65
2017-08-17T10:05:03.094Z,6.87
2017-08-17T10:07:31.805Z,7.78
2017-08-17T10:09:59.334Z,8.63
2017-08-17T10:12:26.852Z,8.50
2017-08-17T10:14:54.364Z,7.55
2017-08-17T10:17:21.880Z,7.00
2017-08-17T10:19:49.380Z,8.32
2017-08-17T10:22:16.873Z,6.07
2017-08-17T10:24:45.164Z,7.50
2017-08-17T10:27:13.432Z,6.70
2017-08-17T10:29:40.913Z,6.47
2017-08-17T10:32:08.418Z,5.75
2017-08-17T10:34:35.920Z,7.18
2017-08-17T10:37:03.425Z,5.97
2017-08-17T10:39:30.952Z,6.43
2017-08-17T10:41:58.465Z,5.90
2017-08-17T10:44:25.958Z,6.93
2017-08-17T10:46:53.548Z,5.30
2017-08-17T10:49:21.054Z,7.10
2017-08-17T10:51:48.569Z,5.20
2017-08-17T10:54:16.079Z,5.27
2017-08-17T10:56:43.567Z,5.40
2017-08-17T10:59:11.084Z,5.43
2017-08-17T11:01:38.618Z,4.97
2017-08-17T11:04:06.142Z,5.70
2017-08-17T11:06:33.663Z,5.47
2017-08-17T11:09:01.209Z,6.00
2017-08-17T11:11:28.705Z,5.60
2017-08-17T11:13:56.979Z,5.30
2017-08-17T11:16:24.474Z,5.50
2017-08-17T11:18:51.970Z,5.10
2017-08-17T11:21:19.908Z,4.63
2017-08-17T11:23:47.451Z,5.60
2017-08-17T11:26:14.927Z,4.97
2017-08-17T11:28:42.864Z,4.90
2017-08-17T11:31:10.382Z,7.97
2017-08-17T11:33:37.880Z,4.87
2017-08-17T11:36:06.154Z,5.43
2017-08-17T11:38:33.644Z,6.10
2017-08-17T11:41:01.171Z,5.13
2017-08-17T11:43:28.689Z,8.50
2017-08-17T11:45:56.184Z,4.73
2017-08-17T11:48:24.460Z,5.00
2017-08-17T11:50:52.009Z,5.63
2017-08-17T11:53:19.545Z,4.40
2017-08-17T11:55:47.040Z,7.50
2017-08-17T11:58:15.307Z,4.60
2017-08-17T12:00:42.851Z,6.23
2017-08-17T12:03:10.342Z,4.50
2017-08-17T12:05:37.849Z,4.87
2017-08-17T12:08:05.417Z,6.67
2017-08-17T12:10:32.939Z,5.17
2017-08-17T12:13:00.450Z,4.97
2017-08-17T12:15:27.959Z,5.00
2017-08-17T12:17:55.460Z,6.20
2017-08-17T12:20:23.007Z,4.53
2017-08-17T12:22:50.514Z,6.03
2017-08-17T12:25:18.831Z,9.07
2017-08-17T12:27:46.329Z,6.20
2017-08-17T12:30:13.838Z,5.70
2017-08-17T12:32:41.450Z,5.30
2017-08-17T12:35:08.966Z,7.90
2017-08-17T12:37:36.516Z,5.60
2017-08-17T12:40:18.705Z,7.23
2017-08-17T12:42:46.251Z,5.70
2017-08-17T12:45:13.751Z,4.82
2017-08-17T12:47:41.291Z,6.18
2017-08-17T12:50:08.808Z,6.20
2017-08-17T12:52:36.331Z,5.70
2017-08-17T12:55:03.858Z,5.60
2017-08-17T12:57:31.358Z,5.72
2017-08-17T12:59:58.863Z,5.90
2017-08-17T13:02:26.397Z,4.85
2017-08-17T13:05:21.106Z,5.05
2017-08-17T13:07:48.600Z,5.45
2017-08-17T13:10:16.119Z,5.93
2017-08-17T13:12:43.652Z,8.18
2017-08-17T13:15:11.164Z,5.37
2017-08-17T13:17:38.683Z,6.75
2017-08-17T13:20:06.189Z,6.62
2017-08-17T13:22:33.735Z,7.82
2017-08-17T13:25:01.246Z,5.80
2017-08-17T13:27:29.545Z,5.72
2017-08-17T13:29:57.053Z,7.32
2017-08-17T13:32:24.546Z,5.18
2017-08-17T13:34:52.090Z,5.82
2017-08-17T13:37:19.672Z,5.18
2017-08-17T13:39:47.188Z,5.72
2017-08-17T13:42:14.691Z,6.22
2017-08-17T13:44:43.309Z,7.20
2017-08-17T13:47:10.815Z,6.07
2017-08-17T13:49:38.333Z,5.85
2017-08-17T13:52:05.820Z,5.75
2017-08-17T13:54:33.316Z,7.80
2017-08-17T13:57:00.857Z,6.50
2017-08-17T13:59:29.136Z,5.50
2017-08-17T14:01:57.448Z,6.05
2017-08-17T14:04:24.965Z,5.55
2017-08-17T14:06:52.449Z,6.15
2017-08-17T14:09:19.924Z,5.60
2017-08-17T14:11:47.441Z,6.55
2017-08-17T14:14:15.719Z,5.87
2017-08-17T14:16:43.990Z,6.57
2017-08-17T14:19:12.311Z,6.00
2017-08-17T14:21:39.828Z,6.28
2017-08-17T14:24:07.359Z,5.28
2017-08-17T14:26:34.846Z,6.65
2017-08-17T14:29:02.365Z,5.80
2017-08-17T14:31:29.895Z,7.45
2017-08-17T14:33:57.392Z,6.45
2017-08-17T14:36:24.989Z,6.82
2017-08-17T14:38:52.466Z,7.30
2017-08-17T14:41:19.983Z,9.30
2017-08-17T14:43:47.506Z,6.45
2017-08-17T14:46:21.712Z,6.60
2017-08-17T14:48:49.224Z,8.10
2017-08-17T14:51:16.769Z,6.65
2017-08-17T14:53:44.265Z,6.37
2017-08-17T14:56:12.549Z,5.95
2017-08-17T14:58:40.817Z,6.20
2017-08-17T15:01:09.081Z,6.28
2017-08-17T15:03:36.576Z,6.78
2017-08-17T15:06:04.092Z,5.35
2017-08-17T15:08:31.612Z,5.80
2017-08-17T15:10:59.582Z,6.20
2017-08-17T15:13:27.079Z,6.60
2017-08-17T15:15:54.601Z,5.78
2017-08-17T15:18:22.232Z,6.53
2017-08-17T15:20:49.744Z,6.47
2017-08-17T15:23:17.247Z,8.07
2017-08-17T15:25:45.516Z,11.93
2017-08-17T15:28:13.809Z,6.80
2017-08-17T15:30:42.076Z,6.65
2017-08-17T15:33:10.692Z,6.72
2017-08-17T15:35:38.182Z,5.97
2017-08-17T15:38:05.694Z,5.95
2017-08-17T15:40:33.214Z,5.85
2017-08-17T15:43:00.712Z,5.72
2017-08-17T15:45:28.232Z,6.85
2017-08-17T15:47:55.762Z,5.50
2017-08-17T15:50:23.269Z,7.87
2017-08-17T15:52:51.172Z,6.53
2017-08-17T15:55:18.706Z,6.15
2017-08-17T15:57:46.959Z,6.50
2017-08-17T16:00:14.481Z,5.97
2017-08-17T16:02:42.033Z,6.03
2017-08-17T16:05:09.535Z,6.68
2017-08-17T16:07:37.064Z,5.68
2017-08-17T16:10:05.566Z,6.18
2017-08-17T16:12:33.473Z,6.10
2017-08-17T16:15:00.972Z,6.07
2017-08-17T16:17:28.572Z,5.93
2017-08-17T16:19:56.952Z,5.45
2017-08-17T16:22:24.569Z,5.68
2017-08-17T16:24:52.090Z,6.70
2017-08-17T16:27:20.389Z,6.00
2017-08-17T16:29:47.918Z,6.10
2017-08-17T16:32:15.459Z,7.90
2017-08-17T16:34:42.975Z,7.45
2017-08-17T16:37:10.643Z,6.10
2017-08-17T16:39:38.137Z,7.22
2017-08-17T16:42:05.621Z,5.60
2017-08-17T16:44:33.147Z,6.43
2017-08-17T16:47:00.675Z,5.72
2017-08-17T16:49:28.295Z,5.50
2017-08-17T16:51:55.815Z,6.78
2017-08-17T16:54:23.304Z,5.90
2017-08-17T16:56:50.804Z,6.93
2017-08-17T16:59:18.312Z,7.00
2017-08-17T17:01:45.824Z,7.40
2017-08-17T17:04:13.331Z,7.68
2017-08-17T17:06:40.849Z,8.55
2017-08-17T17:09:08.353Z,6.37
2017-08-17T17:11:36.016Z,8.38
2017-08-17T17:14:03.580Z,7.85
2017-08-17T17:16:31.076Z,6.07
2017-08-17T17:18:58.602Z,6.20
2017-08-17T17:21:26.128Z,6.95
2017-08-17T17:23:54.165Z,6.97
2017-08-17T17:26:21.689Z,6.53
2017-08-17T17:28:49.215Z,6.28
2017-08-17T17:31:16.723Z,8.95
2017-08-17T17:33:45.006Z,6.55
2017-08-17T17:36:13.369Z,6.53
2017-08-17T17:38:40.878Z,6.68
2017-08-17T17:41:08.391Z,8.65
2017-08-17T17:43:35.922Z,6.50
2017-08-17T17:46:03.439Z,7.32
2017-08-17T17:48:30.952Z,6.18
2017-08-17T17:50:58.517Z,7.68
2017-08-17T17:53:26.037Z,6.80
2017-08-17T17:55:53.594Z,7.32
2017-08-17T17:58:21.108Z,7.15
2017-08-17T18:00:48.662Z,6.43
2017-08-17T18:03:16.446Z,7.45
2017-08-17T18:05:43.978Z,6.78
2017-08-17T18:08:11.505Z,6.60
2017-08-17T18:10:39.010Z,7.50
2017-08-17T18:13:06.512Z,8.45
2017-08-17T18:15:34.031Z,11.57
2017-08-17T18:18:02.347Z,9.40
2017-08-17T18:20:29.867Z,7.87
2017-08-17T18:22:57.399Z,13.45
2017-08-17T18:25:24.918Z,8.70
2017-08-17T18:27:52.550Z,8.63
2017-08-17T18:30:20.920Z,8.52
2017-08-17T18:32:48.433Z,6.95
2017-08-17T18:35:15.962Z,8.07
2017-08-17T18:37:44.241Z,8.27
2017-08-17T18:40:12.536Z,8.57
2017-08-17T18:42:40.046Z,8.65
2017-08-17T18:45:07.747Z,8.20
2017-08-17T18:47:35.270Z,7.03
2017-08-17T18:50:02.788Z,7.57
2017-08-17T18:52:30.338Z,8.75
2017-08-17T18:54:57.879Z,9.05
2017-08-17T18:57:26.178Z,9.90
2017-08-17T18:59:53.729Z,7.43
2017-08-17T19:02:21.233Z,14.07
2017-08-17T19:04:48.748Z,9.23
2017-08-17T19:07:16.309Z,10.80
2017-08-17T19:09:43.807Z,9.88
2017-08-17T19:12:11.311Z,10.02
2017-08-17T19:14:38.851Z,10.55
2017-08-17T19:17:06.459Z,11.98
2017-08-17T19:19:33.986Z,12.48
2017-08-17T19:22:01.492Z,14.65
2017-08-17T19:24:29.142Z,13.00
2017-08-17T19:26:56.697Z,14.35
2017-08-17T19:29:24.250Z,11.57
2017-08-17T19:31:51.770Z,13.77
2017-08-17T19:34:19.292Z,17.60
2017-08-17T19:36:46.806Z,14.73
2017-08-17T19:39:14.328Z,14.07
2017-08-17T19:41:42.231Z,15.23
2017-08-17T19:44:10.511Z,14.40
2017-08-17T19:46:38.806Z,16.87
2017-08-17T19:49:06.534Z,18.10
2017-08-17T19:51:34.124Z,17.70
2017-08-17T19:54:01.737Z,17.95
2017-08-17T19:56:29.249Z,21.65
2017-08-17T19:58:56.789Z,17.67
2017-08-17T20:01:24.288Z,18.95
2017-08-17T20:03:51.831Z,18.70
2017-08-17T20:06:19.365Z,18.00
2017-08-17T20:08:46.966Z,17.40
2017-08-17T20:11:14.534Z,17.42
2017-08-17T20:13:42.087Z,17.73
2017-08-17T20:16:09.605Z,20.08
2017-08-17T20:18:37.169Z,20.17
2017-08-17T20:21:05.506Z,17.00
2017-08-17T20:23:33.039Z,17.95
2017-08-17T20:26:00.888Z,18.95
2017-08-17T20:28:28.449Z,18.05
2017-08-17T20:30:55.967Z,17.85
2017-08-17T20:33:23.553Z,20.55
2017-08-17T20:35:51.882Z,18.20
2017-08-17T20:38:19.422Z,19.55
2017-08-17T20:40:47.822Z,26.35
2017-08-17T20:43:16.400Z,20.83
2017-08-17T20:45:43.937Z,17.67
2017-08-17T20:48:11.514Z,20.05
2017-08-17T20:50:39.031Z,19.33
2017-08-17T20:53:07.683Z,26.65
2017-08-17T20:55:35.245Z,27.45
2017-08-17T20:58:02.758Z,17.30
2017-08-17T21:00:30.320Z,17.48
2017-08-17T21:02:57.926Z,15.95
2017-08-17T21:05:25.519Z,17.20
2017-08-17T21:07:53.077Z,16.83
2017-08-17T21:10:21.420Z,17.08
2017-08-17T21:12:48.959Z,15.98
2017-08-17T21:15:16.511Z,20.80
2017-08-17T21:17:44.034Z,14.82
2017-08-17T21:20:11.569Z,16.33
2017-08-17T21:22:39.103Z,16.05
2017-08-17T21:25:06.785Z,15.68
2017-08-17T21:27:34.322Z,15.93
2017-08-17T21:30:01.896Z,16.95
2017-08-17T21:32:29.390Z,16.40
2017-08-17T21:34:56.913Z,16.80
2017-08-17T21:37:24.440Z,16.37
2017-08-17T21:39:52.013Z,15.27
2017-08-17T21:42:19.526Z,14.32
2017-08-17T21:44:47.060Z,12.88
2017-08-17T21:47:14.589Z,11.18
2017-08-17T21:49:42.107Z,12.25
2017-08-17T21:52:09.601Z,10.95
2017-08-17T21:54:37.111Z,10.73
2017-08-17T21:57:04.670Z,11.15
2017-08-17T21:59:32.207Z,12.65
2017-08-17T22:01:59.716Z,11.15
2017-08-17T22:04:27.240Z,11.20
2017-08-17T22:06:54.750Z,11.52
2017-08-17T22:09:22.740Z,13.23
2017-08-17T22:11:50.294Z,11.43
2017-08-17T22:14:17.802Z,10.35
2017-08-17T22:16:45.320Z,10.15
2017-08-17T22:19:12.820Z,9.68
2017-08-17T22:21:40.342Z,9.65
2017-08-17T22:24:07.869Z,9.13
2017-08-17T22:26:35.416Z,8.15
2017-08-17T22:29:03.681Z,6.80
2017-08-17T22:31:31.268Z,8.20
2017-08-17T22:33:58.797Z,10.52
2017-08-17T22:36:26.321Z,7.85
2017-08-17T22:38:53.864Z,8.55
2017-08-17T22:41:21.353Z,8.48
2017-08-17T22:43:48.854Z,7.53
2017-08-17T22:46:17.136Z,7.68
2017-08-17T22:48:45.388Z,7.62
2017-08-17T22:51:12.865Z,7.90
2017-08-17T22:53:41.134Z,7.85
2017-08-17T22:56:08.644Z,8.50
2017-08-17T22:58:36.285Z,11.40
2017-08-17T23:01:03.811Z,9.40
2017-08-17T23:03:31.375Z,8.75
2017-08-17T23:05:58.891Z,11.77
2017-08-17T23:08:26.394Z,8.30
2017-08-17T23:10:54.334Z,10.25
2017-08-17T23:13:22.028Z,8.48
2017-08-17T23:15:50.049Z,8.68
2017-08-17T23:18:17.565Z,9.45
2017-08-17T23:20:45.876Z,10.05
2017-08-17T23:23:13.442Z,10.30
2017-08-17T23:25:40.955Z,9.18
2017-08-17T23:28:08.463Z,10.25
2017-08-17T23:30:35.992Z,9.18
2017-08-17T23:33:03.530Z,10.85
2017-08-17T23:35:31.105Z,11.30
2017-08-17T23:37:58.657Z,13.98
2017-08-17T23:40:26.952Z,11.15
2017-08-17T23:42:54.481Z,11.25
2017-08-17T23:45:22.000Z,9.75
2017-08-17T23:47:49.514Z,10.80
2017-08-17T23:50:17.823Z,10.35
2017-08-17T23:52:45.389Z,9.85
2017-08-17T23:55:12.907Z,9.13
2017-08-17T23:57:41.232Z,10.88
